sensor_id;sensor_type;location;lat;lon;timestamp;P1;durP1;ratioP1;P2;durP2;ratioP2
5961;SDS011;3007;50.770;0.250;2023-02-19T00:01:08;16.10;;;3.60;;
5961;SDS011;3007;50.770;0.250;2023-02-19T00:03:36;20.47;;;3.37;;
5961;SDS011;3007;50.770;0.250;2023-02-19T00:06:04;21.20;;;2.90;;
5961;SDS011;3007;50.770;0.250;2023-02-19T00:08:34;16.77;;;3.20;;
5961;SDS011;3007;50.770;0.250;2023-02-19T00:11:02;18.47;;;4.40;;
5961;SDS011;3007;50.770;0.250;2023-02-19T00:13:34;23.97;;;3.10;;
5961;SDS011;3007;50.770;0.250;2023-02-19T00:16:05;19.43;;;2.73;;
5961;SDS011;3007;50.770;0.250;2023-02-19T00:18:33;19.83;;;3.23;;
5961;SDS011;3007;50.770;0.250;2023-02-19T00:21:00;21.47;;;3.67;;
5961;SDS011;3007;50.770;0.250;2023-02-19T00:23:28;22.67;;;2.97;;
5961;SDS011;3007;50.770;0.250;2023-02-19T00:25:55;21.97;;;3.47;;
5961;SDS011;3007;50.770;0.250;2023-02-19T00:28:22;29.60;;;3.60;;
5961;SDS011;3007;50.770;0.250;2023-02-19T00:30:50;18.47;;;3.63;;
5961;SDS011;3007;50.770;0.250;2023-02-19T00:33:18;16.77;;;3.10;;
5961;SDS011;3007;50.770;0.250;2023-02-19T00:35:45;33.87;;;3.80;;
5961;SDS011;3007;50.770;0.250;2023-02-19T00:38:12;15.67;;;3.30;;
5961;SDS011;3007;50.770;0.250;2023-02-19T00:40:39;20.73;;;3.20;;
5961;SDS011;3007;50.770;0.250;2023-02-19T00:43:06;18.33;;;2.77;;
5961;SDS011;3007;50.770;0.250;2023-02-19T00:45:33;11.73;;;2.57;;
5961;SDS011;3007;50.770;0.250;2023-02-19T00:48:00;23.07;;;3.13;;
5961;SDS011;3007;50.770;0.250;2023-02-19T00:50:28;15.17;;;3.53;;
5961;SDS011;3007;50.770;0.250;2023-02-19T00:52:55;16.50;;;2.60;;
5961;SDS011;3007;50.770;0.250;2023-02-19T00:55:22;13.23;;;2.57;;
5961;SDS011;3007;50.770;0.250;2023-02-19T00:57:48;14.80;;;2.90;;
5961;SDS011;3007;50.770;0.250;2023-02-19T01:00:15;11.20;;;2.57;;
5961;SDS011;3007;50.770;0.250;2023-02-19T01:02:42;13.80;;;2.70;;
5961;SDS011;3007;50.770;0.250;2023-02-19T01:05:09;12.10;;;2.83;;
5961;SDS011;3007;50.770;0.250;2023-02-19T01:07:38;13.30;;;2.60;;
5961;SDS011;3007;50.770;0.250;2023-02-19T01:10:05;17.40;;;3.17;;
5961;SDS011;3007;50.770;0.250;2023-02-19T01:12:32;14.63;;;2.83;;
5961;SDS011;3007;50.770;0.250;2023-02-19T01:14:59;12.80;;;3.03;;
5961;SDS011;3007;50.770;0.250;2023-02-19T01:17:26;14.80;;;3.10;;
5961;SDS011;3007;50.770;0.250;2023-02-19T01:19:53;13.97;;;2.70;;
5961;SDS011;3007;50.770;0.250;2023-02-19T01:22:19;13.80;;;3.00;;
5961;SDS011;3007;50.770;0.250;2023-02-19T01:24:48;15.23;;;2.73;;
5961;SDS011;3007;50.770;0.250;2023-02-19T01:27:14;10.90;;;2.57;;
5961;SDS011;3007;50.770;0.250;2023-02-19T01:29:44;15.17;;;3.17;;
5961;SDS011;3007;50.770;0.250;2023-02-19T01:32:11;12.47;;;2.57;;
5961;SDS011;3007;50.770;0.250;2023-02-19T01:34:38;13.60;;;3.30;;
5961;SDS011;3007;50.770;0.250;2023-02-19T01:37:05;16.07;;;2.83;;
5961;SDS011;3007;50.770;0.250;2023-02-19T01:39:36;12.53;;;2.87;;
5961;SDS011;3007;50.770;0.250;2023-02-19T01:42:04;17.57;;;3.70;;
5961;SDS011;3007;50.770;0.250;2023-02-19T01:47:54;10.33;;;2.90;;
5961;SDS011;3007;50.770;0.250;2023-02-19T01:50:26;16.80;;;2.90;;
5961;SDS011;3007;50.770;0.250;2023-02-19T01:52:56;13.03;;;2.77;;
5961;SDS011;3007;50.770;0.250;2023-02-19T01:55:24;15.50;;;3.10;;
5961;SDS011;3007;50.770;0.250;2023-02-19T01:57:53;8.90;;;2.70;;
5961;SDS011;3007;50.770;0.250;2023-02-19T02:00:21;15.37;;;3.57;;
5961;SDS011;3007;50.770;0.250;2023-02-19T02:02:50;13.07;;;3.90;;
5961;SDS011;3007;50.770;0.250;2023-02-19T02:05:22;11.10;;;3.43;;
5961;SDS011;3007;50.770;0.250;2023-02-19T02:07:57;11.07;;;3.20;;
5961;SDS011;3007;50.770;0.250;2023-02-19T02:10:44;15.47;;;3.30;;
5961;SDS011;3007;50.770;0.250;2023-02-19T02:13:16;17.77;;;2.50;;
5961;SDS011;3007;50.770;0.250;2023-02-19T02:15:44;12.10;;;2.73;;
5961;SDS011;3007;50.770;0.250;2023-02-19T02:18:23;22.93;;;3.20;;
5961;SDS011;3007;50.770;0.250;2023-02-19T02:21:05;17.90;;;2.70;;
5961;SDS011;3007;50.770;0.250;2023-02-19T02:23:56;13.10;;;2.83;;
5961;SDS011;3007;50.770;0.250;2023-02-19T02:26:42;12.47;;;2.30;;
5961;SDS011;3007;50.770;0.250;2023-02-19T02:29:25;19.37;;;2.83;;
5961;SDS011;3007;50.770;0.250;2023-02-19T02:32:16;15.37;;;2.57;;
5961;SDS011;3007;50.770;0.250;2023-02-19T02:34:47;14.30;;;2.77;;
5961;SDS011;3007;50.770;0.250;2023-02-19T02:37:18;15.73;;;3.03;;
5961;SDS011;3007;50.770;0.250;2023-02-19T02:39:45;19.07;;;2.87;;
5961;SDS011;3007;50.770;0.250;2023-02-19T02:42:12;17.33;;;2.60;;
5961;SDS011;3007;50.770;0.250;2023-02-19T02:44:55;13.63;;;3.37;;
5961;SDS011;3007;50.770;0.250;2023-02-19T02:47:42;17.07;;;3.07;;
5961;SDS011;3007;50.770;0.250;2023-02-19T02:50:14;13.30;;;2.60;;
5961;SDS011;3007;50.770;0.250;2023-02-19T02:52:47;14.13;;;2.43;;
5961;SDS011;3007;50.770;0.250;2023-02-19T02:55:37;18.83;;;2.70;;
5961;SDS011;3007;50.770;0.250;2023-02-19T02:58:08;20.47;;;3.43;;
5961;SDS011;3007;50.770;0.250;2023-02-19T03:00:36;17.53;;;3.27;;
5961;SDS011;3007;50.770;0.250;2023-02-19T03:03:35;18.17;;;2.97;;
5961;SDS011;3007;50.770;0.250;2023-02-19T03:06:05;8.07;;;2.20;;
5961;SDS011;3007;50.770;0.250;2023-02-19T03:08:35;9.10;;;1.93;;
5961;SDS011;3007;50.770;0.250;2023-02-19T03:11:06;10.70;;;2.60;;
5961;SDS011;3007;50.770;0.250;2023-02-19T03:13:53;17.77;;;2.83;;
5961;SDS011;3007;50.770;0.250;2023-02-19T03:16:41;10.10;;;2.70;;
5961;SDS011;3007;50.770;0.250;2023-02-19T03:19:28;12.80;;;3.20;;
5961;SDS011;3007;50.770;0.250;2023-02-19T03:21:59;15.83;;;3.17;;
5961;SDS011;3007;50.770;0.250;2023-02-19T03:24:34;9.00;;;2.60;;
5961;SDS011;3007;50.770;0.250;2023-02-19T03:27:23;13.37;;;3.13;;
5961;SDS011;3007;50.770;0.250;2023-02-19T03:29:53;10.93;;;3.00;;
5961;SDS011;3007;50.770;0.250;2023-02-19T03:32:23;17.63;;;3.17;;
5961;SDS011;3007;50.770;0.250;2023-02-19T03:34:56;9.43;;;2.43;;
5961;SDS011;3007;50.770;0.250;2023-02-19T03:37:28;18.10;;;3.07;;
5961;SDS011;3007;50.770;0.250;2023-02-19T03:39:57;18.03;;;3.37;;
5961;SDS011;3007;50.770;0.250;2023-02-19T03:42:30;12.47;;;2.57;;
5961;SDS011;3007;50.770;0.250;2023-02-19T03:45:06;13.37;;;2.70;;
5961;SDS011;3007;50.770;0.250;2023-02-19T03:47:46;12.53;;;3.00;;
5961;SDS011;3007;50.770;0.250;2023-02-19T03:50:19;12.53;;;2.80;;
5961;SDS011;3007;50.770;0.250;2023-02-19T03:52:52;12.00;;;2.37;;
5961;SDS011;3007;50.770;0.250;2023-02-19T03:55:25;8.77;;;2.80;;
5961;SDS011;3007;50.770;0.250;2023-02-19T03:57:59;15.63;;;2.93;;
5961;SDS011;3007;50.770;0.250;2023-02-19T04:00:33;18.70;;;3.27;;
5961;SDS011;3007;50.770;0.250;2023-02-19T04:03:06;17.83;;;3.00;;
5961;SDS011;3007;50.770;0.250;2023-02-19T04:05:40;13.03;;;3.43;;
5961;SDS011;3007;50.770;0.250;2023-02-19T04:08:12;21.07;;;3.03;;
5961;SDS011;3007;50.770;0.250;2023-02-19T04:10:41;15.00;;;3.33;;
5961;SDS011;3007;50.770;0.250;2023-02-19T04:13:11;16.43;;;3.23;;
5961;SDS011;3007;50.770;0.250;2023-02-19T04:15:43;14.70;;;2.87;;
5961;SDS011;3007;50.770;0.250;2023-02-19T04:18:13;18.70;;;2.97;;
5961;SDS011;3007;50.770;0.250;2023-02-19T04:20:44;8.73;;;2.17;;
5961;SDS011;3007;50.770;0.250;2023-02-19T04:23:12;14.23;;;3.07;;
5961;SDS011;3007;50.770;0.250;2023-02-19T04:25:43;25.03;;;2.73;;
5961;SDS011;3007;50.770;0.250;2023-02-19T04:28:11;11.73;;;3.23;;
5961;SDS011;3007;50.770;0.250;2023-02-19T04:30:40;17.43;;;3.40;;
5961;SDS011;3007;50.770;0.250;2023-02-19T04:33:08;13.97;;;3.20;;
5961;SDS011;3007;50.770;0.250;2023-02-19T04:35:35;24.97;;;3.20;;
5961;SDS011;3007;50.770;0.250;2023-02-19T04:38:03;10.83;;;2.83;;
5961;SDS011;3007;50.770;0.250;2023-02-19T04:40:30;21.97;;;3.23;;
5961;SDS011;3007;50.770;0.250;2023-02-19T04:42:57;17.63;;;2.70;;
5961;SDS011;3007;50.770;0.250;2023-02-19T04:45:24;7.77;;;2.80;;
5961;SDS011;3007;50.770;0.250;2023-02-19T04:47:51;9.03;;;2.50;;
5961;SDS011;3007;50.770;0.250;2023-02-19T04:50:17;16.50;;;3.47;;
5961;SDS011;3007;50.770;0.250;2023-02-19T04:52:45;12.37;;;3.10;;
5961;SDS011;3007;50.770;0.250;2023-02-19T04:55:13;19.13;;;3.30;;
5961;SDS011;3007;50.770;0.250;2023-02-19T04:57:40;20.83;;;2.93;;
5961;SDS011;3007;50.770;0.250;2023-02-19T05:00:08;10.83;;;2.80;;
5961;SDS011;3007;50.770;0.250;2023-02-19T05:02:35;16.13;;;2.70;;
5961;SDS011;3007;50.770;0.250;2023-02-19T05:05:02;16.07;;;3.00;;
5961;SDS011;3007;50.770;0.250;2023-02-19T05:07:29;9.40;;;2.83;;
5961;SDS011;3007;50.770;0.250;2023-02-19T05:09:56;12.57;;;3.53;;
5961;SDS011;3007;50.770;0.250;2023-02-19T05:12:25;16.07;;;3.40;;
5961;SDS011;3007;50.770;0.250;2023-02-19T05:14:52;14.97;;;3.47;;
5961;SDS011;3007;50.770;0.250;2023-02-19T05:17:19;15.03;;;3.37;;
5961;SDS011;3007;50.770;0.250;2023-02-19T05:19:46;9.83;;;3.53;;
5961;SDS011;3007;50.770;0.250;2023-02-19T05:22:12;14.33;;;3.43;;
5961;SDS011;3007;50.770;0.250;2023-02-19T05:24:39;12.00;;;3.23;;
5961;SDS011;3007;50.770;0.250;2023-02-19T05:27:06;16.97;;;3.73;;
5961;SDS011;3007;50.770;0.250;2023-02-19T05:29:35;9.10;;;3.13;;
5961;SDS011;3007;50.770;0.250;2023-02-19T05:32:01;16.70;;;3.43;;
5961;SDS011;3007;50.770;0.250;2023-02-19T05:34:28;16.33;;;3.40;;
5961;SDS011;3007;50.770;0.250;2023-02-19T05:36:55;18.27;;;3.23;;
5961;SDS011;3007;50.770;0.250;2023-02-19T05:39:22;12.33;;;3.13;;
5961;SDS011;3007;50.770;0.250;2023-02-19T05:41:49;16.37;;;3.30;;
5961;SDS011;3007;50.770;0.250;2023-02-19T05:44:16;10.67;;;2.43;;
5961;SDS011;3007;50.770;0.250;2023-02-19T05:46:44;16.03;;;3.50;;
5961;SDS011;3007;50.770;0.250;2023-02-19T05:49:11;14.33;;;2.80;;
5961;SDS011;3007;50.770;0.250;2023-02-19T05:51:38;12.93;;;3.00;;
5961;SDS011;3007;50.770;0.250;2023-02-19T05:54:05;13.73;;;3.60;;
5961;SDS011;3007;50.770;0.250;2023-02-19T05:56:32;6.43;;;2.37;;
5961;SDS011;3007;50.770;0.250;2023-02-19T05:59:01;9.77;;;2.70;;
5961;SDS011;3007;50.770;0.250;2023-02-19T06:01:30;9.30;;;2.80;;
5961;SDS011;3007;50.770;0.250;2023-02-19T06:03:59;10.17;;;2.47;;
5961;SDS011;3007;50.770;0.250;2023-02-19T06:06:27;12.83;;;2.70;;
5961;SDS011;3007;50.770;0.250;2023-02-19T06:08:54;17.53;;;2.73;;
5961;SDS011;3007;50.770;0.250;2023-02-19T06:11:21;12.43;;;3.20;;
5961;SDS011;3007;50.770;0.250;2023-02-19T06:13:48;9.70;;;3.10;;
5961;SDS011;3007;50.770;0.250;2023-02-19T06:16:15;10.30;;;2.37;;
5961;SDS011;3007;50.770;0.250;2023-02-19T06:18:43;8.43;;;2.70;;
5961;SDS011;3007;50.770;0.250;2023-02-19T06:21:11;16.80;;;3.33;;
5961;SDS011;3007;50.770;0.250;2023-02-19T06:23:38;14.83;;;3.57;;
5961;SDS011;3007;50.770;0.250;2023-02-19T06:26:07;13.23;;;3.10;;
5961;SDS011;3007;50.770;0.250;2023-02-19T06:28:38;13.53;;;3.23;;
5961;SDS011;3007;50.770;0.250;2023-02-19T06:31:07;9.47;;;2.80;;
5961;SDS011;3007;50.770;0.250;2023-02-19T06:33:35;14.43;;;2.77;;
5961;SDS011;3007;50.770;0.250;2023-02-19T06:36:05;14.60;;;3.27;;
5961;SDS011;3007;50.770;0.250;2023-02-19T06:38:35;6.43;;;2.30;;
5961;SDS011;3007;50.770;0.250;2023-02-19T06:41:03;11.67;;;3.03;;
5961;SDS011;3007;50.770;0.250;2023-02-19T06:43:31;9.77;;;2.63;;
5961;SDS011;3007;50.770;0.250;2023-02-19T06:45:59;9.03;;;2.77;;
5961;SDS011;3007;50.770;0.250;2023-02-19T06:48:26;16.20;;;3.37;;
5961;SDS011;3007;50.770;0.250;2023-02-19T06:50:54;14.50;;;2.70;;
5961;SDS011;3007;50.770;0.250;2023-02-19T06:53:22;13.90;;;2.93;;
5961;SDS011;3007;50.770;0.250;2023-02-19T06:55:55;9.43;;;3.07;;
5961;SDS011;3007;50.770;0.250;2023-02-19T06:58:23;11.50;;;2.37;;
5961;SDS011;3007;50.770;0.250;2023-02-19T07:00:50;11.60;;;2.73;;
5961;SDS011;3007;50.770;0.250;2023-02-19T07:03:17;7.87;;;2.60;;
5961;SDS011;3007;50.770;0.250;2023-02-19T07:05:44;8.90;;;2.60;;
5961;SDS011;3007;50.770;0.250;2023-02-19T07:08:11;9.13;;;2.50;;
5961;SDS011;3007;50.770;0.250;2023-02-19T07:10:38;10.37;;;2.47;;
5961;SDS011;3007;50.770;0.250;2023-02-19T07:13:06;13.43;;;3.27;;
5961;SDS011;3007;50.770;0.250;2023-02-19T07:15:33;11.53;;;2.50;;
5961;SDS011;3007;50.770;0.250;2023-02-19T07:18:00;10.90;;;3.20;;
5961;SDS011;3007;50.770;0.250;2023-02-19T07:20:29;16.30;;;2.83;;
5961;SDS011;3007;50.770;0.250;2023-02-19T07:22:56;6.63;;;2.43;;
5961;SDS011;3007;50.770;0.250;2023-02-19T07:25:23;9.57;;;2.37;;
5961;SDS011;3007;50.770;0.250;2023-02-19T07:27:50;11.53;;;2.90;;
5961;SDS011;3007;50.770;0.250;2023-02-19T07:30:18;14.30;;;2.97;;
5961;SDS011;3007;50.770;0.250;2023-02-19T07:32:45;12.27;;;2.93;;
5961;SDS011;3007;50.770;0.250;2023-02-19T07:35:12;10.73;;;3.00;;
5961;SDS011;3007;50.770;0.250;2023-02-19T07:37:39;12.57;;;3.07;;
5961;SDS011;3007;50.770;0.250;2023-02-19T07:40:07;11.47;;;3.30;;
5961;SDS011;3007;50.770;0.250;2023-02-19T07:42:34;14.27;;;3.30;;
5961;SDS011;3007;50.770;0.250;2023-02-19T07:45:01;8.00;;;2.80;;
5961;SDS011;3007;50.770;0.250;2023-02-19T07:47:29;9.97;;;3.67;;
5961;SDS011;3007;50.770;0.250;2023-02-19T07:49:56;16.03;;;3.63;;
5961;SDS011;3007;50.770;0.250;2023-02-19T07:52:23;14.33;;;2.90;;
5961;SDS011;3007;50.770;0.250;2023-02-19T07:54:50;6.93;;;2.60;;
5961;SDS011;3007;50.770;0.250;2023-02-19T07:57:17;13.70;;;3.47;;
5961;SDS011;3007;50.770;0.250;2023-02-19T07:59:44;17.97;;;3.33;;
5961;SDS011;3007;50.770;0.250;2023-02-19T08:02:13;11.07;;;2.63;;
5961;SDS011;3007;50.770;0.250;2023-02-19T08:05:00;14.37;;;3.17;;
5961;SDS011;3007;50.770;0.250;2023-02-19T08:07:29;16.87;;;3.83;;
5961;SDS011;3007;50.770;0.250;2023-02-19T08:09:57;21.67;;;4.13;;
5961;SDS011;3007;50.770;0.250;2023-02-19T08:12:38;18.77;;;4.47;;
5961;SDS011;3007;50.770;0.250;2023-02-19T08:15:22;17.43;;;4.00;;
5961;SDS011;3007;50.770;0.250;2023-02-19T08:17:49;13.53;;;3.20;;
5961;SDS011;3007;50.770;0.250;2023-02-19T08:20:17;13.17;;;3.30;;
5961;SDS011;3007;50.770;0.250;2023-02-19T08:22:44;5.90;;;2.90;;
5961;SDS011;3007;50.770;0.250;2023-02-19T08:25:11;13.93;;;3.40;;
5961;SDS011;3007;50.770;0.250;2023-02-19T08:27:38;12.47;;;2.87;;
5961;SDS011;3007;50.770;0.250;2023-02-19T08:30:05;11.03;;;2.90;;
5961;SDS011;3007;50.770;0.250;2023-02-19T08:32:33;10.73;;;2.67;;
5961;SDS011;3007;50.770;0.250;2023-02-19T08:35:00;9.97;;;2.60;;
5961;SDS011;3007;50.770;0.250;2023-02-19T08:37:28;11.90;;;3.07;;
5961;SDS011;3007;50.770;0.250;2023-02-19T08:39:55;12.80;;;2.97;;
5961;SDS011;3007;50.770;0.250;2023-02-19T08:42:22;19.70;;;2.77;;
5961;SDS011;3007;50.770;0.250;2023-02-19T08:44:49;10.80;;;3.40;;
5961;SDS011;3007;50.770;0.250;2023-02-19T08:47:16;11.53;;;3.07;;
5961;SDS011;3007;50.770;0.250;2023-02-19T08:49:43;9.43;;;2.60;;
5961;SDS011;3007;50.770;0.250;2023-02-19T08:52:10;9.80;;;2.63;;
5961;SDS011;3007;50.770;0.250;2023-02-19T08:54:38;7.13;;;2.67;;
5961;SDS011;3007;50.770;0.250;2023-02-19T08:57:05;14.83;;;3.23;;
5961;SDS011;3007;50.770;0.250;2023-02-19T08:59:32;9.20;;;3.10;;
5961;SDS011;3007;50.770;0.250;2023-02-19T09:01:59;22.87;;;3.13;;
5961;SDS011;3007;50.770;0.250;2023-02-19T09:04:26;13.07;;;2.50;;
5961;SDS011;3007;50.770;0.250;2023-02-19T09:06:53;7.20;;;2.70;;
5961;SDS011;3007;50.770;0.250;2023-02-19T09:09:19;6.20;;;2.20;;
5961;SDS011;3007;50.770;0.250;2023-02-19T09:11:48;13.60;;;3.43;;
5961;SDS011;3007;50.770;0.250;2023-02-19T09:14:14;14.17;;;3.53;;
5961;SDS011;3007;50.770;0.250;2023-02-19T09:16:41;10.27;;;2.90;;
5961;SDS011;3007;50.770;0.250;2023-02-19T09:19:10;9.67;;;3.03;;
5961;SDS011;3007;50.770;0.250;2023-02-19T09:21:37;8.00;;;2.60;;
5961;SDS011;3007;50.770;0.250;2023-02-19T09:24:04;11.23;;;2.83;;
5961;SDS011;3007;50.770;0.250;2023-02-19T09:26:34;9.83;;;2.67;;
5961;SDS011;3007;50.770;0.250;2023-02-19T09:29:02;9.80;;;2.57;;
5961;SDS011;3007;50.770;0.250;2023-02-19T09:31:29;7.17;;;3.00;;
5961;SDS011;3007;50.770;0.250;2023-02-19T09:33:59;14.17;;;3.00;;
5961;SDS011;3007;50.770;0.250;2023-02-19T09:36:26;6.90;;;2.17;;
5961;SDS011;3007;50.770;0.250;2023-02-19T09:38:53;10.43;;;2.53;;
5961;SDS011;3007;50.770;0.250;2023-02-19T09:41:21;6.03;;;1.87;;
5961;SDS011;3007;50.770;0.250;2023-02-19T09:43:54;11.57;;;2.27;;
5961;SDS011;3007;50.770;0.250;2023-02-19T09:46:26;7.27;;;2.13;;
5961;SDS011;3007;50.770;0.250;2023-02-19T09:48:57;8.63;;;2.00;;
5961;SDS011;3007;50.770;0.250;2023-02-19T09:51:30;15.20;;;2.43;;
5961;SDS011;3007;50.770;0.250;2023-02-19T09:53:59;8.53;;;2.03;;
5961;SDS011;3007;50.770;0.250;2023-02-19T09:56:28;10.87;;;2.40;;
5961;SDS011;3007;50.770;0.250;2023-02-19T09:58:55;9.73;;;2.47;;
5961;SDS011;3007;50.770;0.250;2023-02-19T10:01:27;7.13;;;2.03;;
5961;SDS011;3007;50.770;0.250;2023-02-19T10:03:58;12.30;;;2.70;;
5961;SDS011;3007;50.770;0.250;2023-02-19T10:06:26;11.07;;;2.67;;
5961;SDS011;3007;50.770;0.250;2023-02-19T10:08:55;9.37;;;2.37;;
5961;SDS011;3007;50.770;0.250;2023-02-19T10:11:30;8.60;;;2.40;;
5961;SDS011;3007;50.770;0.250;2023-02-19T10:14:00;9.37;;;2.13;;
5961;SDS011;3007;50.770;0.250;2023-02-19T10:16:34;10.47;;;2.07;;
5961;SDS011;3007;50.770;0.250;2023-02-19T10:19:07;10.37;;;2.10;;
5961;SDS011;3007;50.770;0.250;2023-02-19T10:21:35;8.10;;;2.73;;
5961;SDS011;3007;50.770;0.250;2023-02-19T10:24:04;13.27;;;2.10;;
5961;SDS011;3007;50.770;0.250;2023-02-19T10:26:32;12.03;;;2.07;;
5961;SDS011;3007;50.770;0.250;2023-02-19T10:29:00;5.33;;;1.87;;
5961;SDS011;3007;50.770;0.250;2023-02-19T10:31:29;2.50;;;1.33;;
5961;SDS011;3007;50.770;0.250;2023-02-19T10:33:59;11.30;;;1.83;;
5961;SDS011;3007;50.770;0.250;2023-02-19T10:36:27;8.10;;;1.97;;
5961;SDS011;3007;50.770;0.250;2023-02-19T10:38:57;6.17;;;1.90;;
5961;SDS011;3007;50.770;0.250;2023-02-19T10:41:25;5.20;;;1.53;;
5961;SDS011;3007;50.770;0.250;2023-02-19T10:43:54;4.93;;;1.67;;
5961;SDS011;3007;50.770;0.250;2023-02-19T10:46:26;4.37;;;1.27;;
5961;SDS011;3007;50.770;0.250;2023-02-19T10:48:55;10.40;;;2.20;;
5961;SDS011;3007;50.770;0.250;2023-02-19T10:51:30;9.90;;;1.80;;
5961;SDS011;3007;50.770;0.250;2023-02-19T10:54:03;6.10;;;1.40;;
5961;SDS011;3007;50.770;0.250;2023-02-19T10:56:32;7.07;;;1.67;;
5961;SDS011;3007;50.770;0.250;2023-02-19T10:59:13;5.50;;;1.60;;
5961;SDS011;3007;50.770;0.250;2023-02-19T11:01:52;5.10;;;1.70;;
5961;SDS011;3007;50.770;0.250;2023-02-19T11:04:20;4.30;;;1.60;;
5961;SDS011;3007;50.770;0.250;2023-02-19T11:06:48;3.67;;;1.10;;
5961;SDS011;3007;50.770;0.250;2023-02-19T11:09:21;5.57;;;1.20;;
5961;SDS011;3007;50.770;0.250;2023-02-19T11:11:52;2.80;;;1.20;;
5961;SDS011;3007;50.770;0.250;2023-02-19T11:14:21;4.73;;;1.67;;
5961;SDS011;3007;50.770;0.250;2023-02-19T11:16:50;4.90;;;1.50;;
5961;SDS011;3007;50.770;0.250;2023-02-19T11:19:24;6.83;;;1.23;;
5961;SDS011;3007;50.770;0.250;2023-02-19T11:21:55;4.47;;;1.10;;
5961;SDS011;3007;50.770;0.250;2023-02-19T11:24:24;3.30;;;1.07;;
5961;SDS011;3007;50.770;0.250;2023-02-19T11:26:58;3.33;;;1.30;;
5961;SDS011;3007;50.770;0.250;2023-02-19T11:29:26;7.87;;;1.60;;
5961;SDS011;3007;50.770;0.250;2023-02-19T11:32:02;4.67;;;1.30;;
5961;SDS011;3007;50.770;0.250;2023-02-19T11:34:48;6.47;;;1.60;;
5961;SDS011;3007;50.770;0.250;2023-02-19T11:37:17;5.73;;;1.20;;
5961;SDS011;3007;50.770;0.250;2023-02-19T11:39:45;3.27;;;0.93;;
5961;SDS011;3007;50.770;0.250;2023-02-19T11:42:30;2.20;;;1.10;;
5961;SDS011;3007;50.770;0.250;2023-02-19T11:45:07;4.07;;;1.07;;
5961;SDS011;3007;50.770;0.250;2023-02-19T11:50:44;4.17;;;1.50;;
5961;SDS011;3007;50.770;0.250;2023-02-19T11:53:20;3.63;;;1.37;;
5961;SDS011;3007;50.770;0.250;2023-02-19T11:55:52;5.37;;;1.50;;
5961;SDS011;3007;50.770;0.250;2023-02-19T11:58:35;3.87;;;1.20;;
5961;SDS011;3007;50.770;0.250;2023-02-19T12:01:20;2.73;;;1.23;;
5961;SDS011;3007;50.770;0.250;2023-02-19T12:04:00;3.20;;;1.20;;
5961;SDS011;3007;50.770;0.250;2023-02-19T12:06:44;2.40;;;1.07;;
5961;SDS011;3007;50.770;0.250;2023-02-19T12:09:26;1.63;;;0.80;;
5961;SDS011;3007;50.770;0.250;2023-02-19T12:12:20;3.80;;;1.20;;
5961;SDS011;3007;50.770;0.250;2023-02-19T12:15:12;5.00;;;1.10;;
5961;SDS011;3007;50.770;0.250;2023-02-19T12:18:05;3.07;;;1.00;;
5961;SDS011;3007;50.770;0.250;2023-02-19T12:20:45;3.93;;;1.40;;
5961;SDS011;3007;50.770;0.250;2023-02-19T12:23:26;6.43;;;1.23;;
5961;SDS011;3007;50.770;0.250;2023-02-19T12:26:08;6.10;;;1.30;;
5961;SDS011;3007;50.770;0.250;2023-02-19T12:28:56;2.47;;;1.10;;
5961;SDS011;3007;50.770;0.250;2023-02-19T12:31:42;3.77;;;1.40;;
5961;SDS011;3007;50.770;0.250;2023-02-19T12:34:27;2.37;;;1.20;;
5961;SDS011;3007;50.770;0.250;2023-02-19T12:37:07;4.83;;;1.33;;
5961;SDS011;3007;50.770;0.250;2023-02-19T12:39:47;5.37;;;1.53;;
5961;SDS011;3007;50.770;0.250;2023-02-19T12:42:33;3.20;;;1.50;;
5961;SDS011;3007;50.770;0.250;2023-02-19T12:45:14;4.03;;;1.80;;
5961;SDS011;3007;50.770;0.250;2023-02-19T12:47:47;5.17;;;1.80;;
5961;SDS011;3007;50.770;0.250;2023-02-19T12:50:23;3.17;;;1.40;;
5961;SDS011;3007;50.770;0.250;2023-02-19T12:52:52;4.97;;;1.30;;
5961;SDS011;3007;50.770;0.250;2023-02-19T12:55:28;3.77;;;1.30;;
5961;SDS011;3007;50.770;0.250;2023-02-19T12:58:01;5.37;;;1.40;;
5961;SDS011;3007;50.770;0.250;2023-02-19T13:00:32;4.30;;;1.40;;
5961;SDS011;3007;50.770;0.250;2023-02-19T13:03:08;4.13;;;1.50;;
5961;SDS011;3007;50.770;0.250;2023-02-19T13:05:45;3.37;;;1.07;;
5961;SDS011;3007;50.770;0.250;2023-02-19T13:08:18;3.23;;;1.40;;
5961;SDS011;3007;50.770;0.250;2023-02-19T13:10:52;4.40;;;1.50;;
5961;SDS011;3007;50.770;0.250;2023-02-19T13:13:24;3.73;;;1.20;;
5961;SDS011;3007;50.770;0.250;2023-02-19T13:15:55;5.10;;;1.53;;
5961;SDS011;3007;50.770;0.250;2023-02-19T13:18:28;3.03;;;1.10;;
5961;SDS011;3007;50.770;0.250;2023-02-19T13:21:00;4.10;;;1.10;;
5961;SDS011;3007;50.770;0.250;2023-02-19T13:23:29;6.57;;;1.13;;
5961;SDS011;3007;50.770;0.250;2023-02-19T13:26:26;3.00;;;1.27;;
5961;SDS011;3007;50.770;0.250;2023-02-19T13:29:11;5.33;;;1.43;;
5961;SDS011;3007;50.770;0.250;2023-02-19T13:31:52;5.00;;;1.40;;
5961;SDS011;3007;50.770;0.250;2023-02-19T13:34:38;2.37;;;1.00;;
5961;SDS011;3007;50.770;0.250;2023-02-19T13:37:15;3.70;;;1.10;;
5961;SDS011;3007;50.770;0.250;2023-02-19T13:39:46;4.90;;;1.10;;
5961;SDS011;3007;50.770;0.250;2023-02-19T13:42:22;3.47;;;1.20;;
5961;SDS011;3007;50.770;0.250;2023-02-19T13:44:52;5.90;;;1.90;;
5961;SDS011;3007;50.770;0.250;2023-02-19T13:50:18;3.43;;;1.13;;
5961;SDS011;3007;50.770;0.250;2023-02-19T13:52:48;6.33;;;1.50;;
5961;SDS011;3007;50.770;0.250;2023-02-19T14:01:05;2.70;;;1.30;;
5961;SDS011;3007;50.770;0.250;2023-02-19T14:03:43;5.47;;;1.40;;
5961;SDS011;3007;50.770;0.250;2023-02-19T14:06:12;3.63;;;1.13;;
5961;SDS011;3007;50.770;0.250;2023-02-19T14:08:46;4.80;;;1.30;;
5961;SDS011;3007;50.770;0.250;2023-02-19T14:11:16;6.23;;;1.50;;
5961;SDS011;3007;50.770;0.250;2023-02-19T14:16:56;5.57;;;1.50;;
5961;SDS011;3007;50.770;0.250;2023-02-19T14:19:45;6.93;;;1.40;;
5961;SDS011;3007;50.770;0.250;2023-02-19T14:25:33;5.73;;;1.50;;
5961;SDS011;3007;50.770;0.250;2023-02-19T14:28:03;3.67;;;1.17;;
5961;SDS011;3007;50.770;0.250;2023-02-19T14:30:41;3.80;;;1.27;;
5961;SDS011;3007;50.770;0.250;2023-02-19T14:33:13;5.40;;;1.70;;
5961;SDS011;3007;50.770;0.250;2023-02-19T14:35:42;8.77;;;1.53;;
5961;SDS011;3007;50.770;0.250;2023-02-19T14:38:13;8.20;;;1.47;;
5961;SDS011;3007;50.770;0.250;2023-02-19T14:40:45;9.50;;;1.80;;
5961;SDS011;3007;50.770;0.250;2023-02-19T14:43:14;6.63;;;1.63;;
5961;SDS011;3007;50.770;0.250;2023-02-19T14:45:44;10.33;;;2.33;;
5961;SDS011;3007;50.770;0.250;2023-02-19T14:48:17;7.73;;;1.70;;
5961;SDS011;3007;50.770;0.250;2023-02-19T14:50:49;7.00;;;1.80;;
5961;SDS011;3007;50.770;0.250;2023-02-19T14:53:19;7.97;;;1.83;;
5961;SDS011;3007;50.770;0.250;2023-02-19T14:55:48;8.30;;;1.90;;
5961;SDS011;3007;50.770;0.250;2023-02-19T14:58:17;4.13;;;1.60;;
5961;SDS011;3007;50.770;0.250;2023-02-19T15:00:47;8.90;;;1.77;;
5961;SDS011;3007;50.770;0.250;2023-02-19T15:03:26;5.30;;;1.60;;
5961;SDS011;3007;50.770;0.250;2023-02-19T15:05:57;12.30;;;1.97;;
5961;SDS011;3007;50.770;0.250;2023-02-19T15:08:29;9.13;;;1.97;;
5961;SDS011;3007;50.770;0.250;2023-02-19T15:11:00;10.03;;;1.67;;
5961;SDS011;3007;50.770;0.250;2023-02-19T15:13:29;7.50;;;2.30;;
5961;SDS011;3007;50.770;0.250;2023-02-19T15:15:57;7.47;;;1.93;;
5961;SDS011;3007;50.770;0.250;2023-02-19T15:18:25;6.00;;;1.80;;
5961;SDS011;3007;50.770;0.250;2023-02-19T15:20:57;8.07;;;2.20;;
5961;SDS011;3007;50.770;0.250;2023-02-19T15:23:26;10.33;;;2.00;;
5961;SDS011;3007;50.770;0.250;2023-02-19T15:25:56;6.13;;;1.67;;
5961;SDS011;3007;50.770;0.250;2023-02-19T15:28:28;10.17;;;2.20;;
5961;SDS011;3007;50.770;0.250;2023-02-19T15:31:05;7.20;;;1.77;;
5961;SDS011;3007;50.770;0.250;2023-02-19T15:33:39;7.67;;;1.90;;
5961;SDS011;3007;50.770;0.250;2023-02-19T15:36:14;10.50;;;1.77;;
5961;SDS011;3007;50.770;0.250;2023-02-19T15:38:50;6.53;;;1.90;;
5961;SDS011;3007;50.770;0.250;2023-02-19T15:41:20;12.13;;;2.00;;
5961;SDS011;3007;50.770;0.250;2023-02-19T15:43:48;6.67;;;1.83;;
5961;SDS011;3007;50.770;0.250;2023-02-19T15:46:22;8.03;;;1.90;;
5961;SDS011;3007;50.770;0.250;2023-02-19T15:48:53;9.90;;;2.50;;
5961;SDS011;3007;50.770;0.250;2023-02-19T15:51:27;7.87;;;2.10;;
5961;SDS011;3007;50.770;0.250;2023-02-19T15:54:01;13.60;;;2.03;;